sensor_id;sensor_type;location;lat;lon;timestamp;P1;durP1;ratioP1;P2;durP2;ratioP2
79009;SDS011;73031;44.726;37.760;2024-03-25T00:00:12;25.80;;;9.05;;
79009;SDS011;73031;44.726;37.760;2024-03-25T00:01:15;21.17;;;8.88;;
79009;SDS011;73031;44.726;37.760;2024-03-25T00:02:16;18.92;;;8.50;;
79009;SDS011;73031;44.726;37.760;2024-03-25T00:03:17;16.40;;;8.52;;
79009;SDS011;73031;44.726;37.760;2024-03-25T00:04:18;19.08;;;8.50;;
79009;SDS011;73031;44.726;37.760;2024-03-25T00:05:21;21.33;;;8.38;;
79009;SDS011;73031;44.726;37.760;2024-03-25T00:06:26;24.45;;;8.55;;
79009;SDS011;73031;44.726;37.760;2024-03-25T00:07:27;20.38;;;8.20;;
79009;SDS011;73031;44.726;37.760;2024-03-25T00:08:28;16.52;;;8.18;;
79009;SDS011;73031;44.726;37.760;2024-03-25T00:09:29;19.08;;;9.10;;
79009;SDS011;73031;44.726;37.760;2024-03-25T00:10:30;19.33;;;8.98;;
79009;SDS011;73031;44.726;37.760;2024-03-25T00:11:31;20.58;;;8.73;;
79009;SDS011;73031;44.726;37.760;2024-03-25T00:12:32;23.35;;;8.90;;
79009;SDS011;73031;44.726;37.760;2024-03-25T00:13:34;20.35;;;9.23;;
79009;SDS011;73031;44.726;37.760;2024-03-25T00:14:35;18.95;;;8.40;;
79009;SDS011;73031;44.726;37.760;2024-03-25T00:15:36;17.08;;;8.82;;
79009;SDS011;73031;44.726;37.760;2024-03-25T00:16:41;23.70;;;8.85;;
79009;SDS011;73031;44.726;37.760;2024-03-25T00:17:42;18.65;;;8.48;;
79009;SDS011;73031;44.726;37.760;2024-03-25T00:18:43;19.77;;;8.45;;
79009;SDS011;73031;44.726;37.760;2024-03-25T00:19:45;21.52;;;8.57;;
79009;SDS011;73031;44.726;37.760;2024-03-25T00:20:51;25.30;;;9.48;;
79009;SDS011;73031;44.726;37.760;2024-03-25T00:21:52;18.30;;;8.57;;
79009;SDS011;73031;44.726;37.760;2024-03-25T00:22:53;23.25;;;9.57;;
79009;SDS011;73031;44.726;37.760;2024-03-25T00:23:55;20.55;;;8.82;;
79009;SDS011;73031;44.726;37.760;2024-03-25T00:24:59;23.08;;;9.18;;
79009;SDS011;73031;44.726;37.760;2024-03-25T00:26:00;21.55;;;9.85;;
79009;SDS011;73031;44.726;37.760;2024-03-25T00:27:02;21.08;;;8.93;;
79009;SDS011;73031;44.726;37.760;2024-03-25T00:28:03;22.05;;;9.43;;
79009;SDS011;73031;44.726;37.760;2024-03-25T00:29:04;28.60;;;9.18;;
79009;SDS011;73031;44.726;37.760;2024-03-25T00:30:06;23.42;;;8.63;;
79009;SDS011;73031;44.726;37.760;2024-03-25T00:31:07;19.15;;;8.95;;
79009;SDS011;73031;44.726;37.760;2024-03-25T00:32:08;21.08;;;9.02;;
79009;SDS011;73031;44.726;37.760;2024-03-25T00:33:09;18.67;;;9.23;;
79009;SDS011;73031;44.726;37.760;2024-03-25T00:34:11;23.52;;;9.50;;
79009;SDS011;73031;44.726;37.760;2024-03-25T00:35:13;23.33;;;10.65;;
79009;SDS011;73031;44.726;37.760;2024-03-25T00:36:14;19.20;;;8.90;;
79009;SDS011;73031;44.726;37.760;2024-03-25T00:37:15;18.70;;;9.43;;
79009;SDS011;73031;44.726;37.760;2024-03-25T00:38:16;17.67;;;8.48;;
79009;SDS011;73031;44.726;37.760;2024-03-25T00:39:17;18.08;;;8.77;;
79009;SDS011;73031;44.726;37.760;2024-03-25T00:40:19;25.50;;;8.40;;
79009;SDS011;73031;44.726;37.760;2024-03-25T00:41:20;20.23;;;8.52;;
79009;SDS011;73031;44.726;37.760;2024-03-25T00:42:22;20.75;;;8.13;;
79009;SDS011;73031;44.726;37.760;2024-03-25T00:43:23;19.95;;;8.45;;
79009;SDS011;73031;44.726;37.760;2024-03-25T00:44:24;18.42;;;8.70;;
79009;SDS011;73031;44.726;37.760;2024-03-25T00:45:25;17.60;;;8.27;;
79009;SDS011;73031;44.726;37.760;2024-03-25T00:46:31;15.93;;;8.25;;
79009;SDS011;73031;44.726;37.760;2024-03-25T00:47:32;17.25;;;7.75;;
79009;SDS011;73031;44.726;37.760;2024-03-25T00:48:33;22.02;;;8.18;;
79009;SDS011;73031;44.726;37.760;2024-03-25T00:49:34;16.98;;;8.23;;
79009;SDS011;73031;44.726;37.760;2024-03-25T00:50:35;15.68;;;7.78;;
79009;SDS011;73031;44.726;37.760;2024-03-25T00:51:37;18.77;;;7.60;;
79009;SDS011;73031;44.726;37.760;2024-03-25T00:52:38;17.45;;;7.45;;
79009;SDS011;73031;44.726;37.760;2024-03-25T00:53:39;17.13;;;7.47;;
79009;SDS011;73031;44.726;37.760;2024-03-25T00:54:40;17.17;;;7.75;;
79009;SDS011;73031;44.726;37.760;2024-03-25T00:55:41;15.98;;;8.32;;
79009;SDS011;73031;44.726;37.760;2024-03-25T00:56:42;20.13;;;8.88;;
79009;SDS011;73031;44.726;37.760;2024-03-25T00:57:44;17.70;;;9.60;;
79009;SDS011;73031;44.726;37.760;2024-03-25T00:58:45;21.02;;;9.18;;
79009;SDS011;73031;44.726;37.760;2024-03-25T00:59:47;17.92;;;9.45;;
79009;SDS011;73031;44.726;37.760;2024-03-25T01:00:48;17.52;;;9.73;;
79009;SDS011;73031;44.726;37.760;2024-03-25T01:01:49;20.17;;;9.57;;
79009;SDS011;73031;44.726;37.760;2024-03-25T01:02:50;21.83;;;10.45;;
79009;SDS011;73031;44.726;37.760;2024-03-25T01:03:51;20.73;;;9.00;;
79009;SDS011;73031;44.726;37.760;2024-03-25T01:04:52;25.38;;;9.55;;
79009;SDS011;73031;44.726;37.760;2024-03-25T01:05:54;26.50;;;9.10;;
79009;SDS011;73031;44.726;37.760;2024-03-25T01:06:56;23.35;;;9.45;;
79009;SDS011;73031;44.726;37.760;2024-03-25T01:07:57;21.05;;;9.20;;
79009;SDS011;73031;44.726;37.760;2024-03-25T01:08:58;22.15;;;9.18;;
79009;SDS011;73031;44.726;37.760;2024-03-25T01:09:59;23.80;;;10.27;;
79009;SDS011;73031;44.726;37.760;2024-03-25T01:11:00;17.65;;;7.78;;
79009;SDS011;73031;44.726;37.760;2024-03-25T01:12:01;19.63;;;9.05;;
79009;SDS011;73031;44.726;37.760;2024-03-25T01:13:02;19.15;;;9.38;;
79009;SDS011;73031;44.726;37.760;2024-03-25T01:14:03;18.75;;;9.15;;
79009;SDS011;73031;44.726;37.760;2024-03-25T01:15:04;19.55;;;9.18;;
79009;SDS011;73031;44.726;37.760;2024-03-25T01:16:06;18.55;;;9.32;;
79009;SDS011;73031;44.726;37.760;2024-03-25T01:17:08;21.23;;;9.00;;
79009;SDS011;73031;44.726;37.760;2024-03-25T01:18:09;18.42;;;9.65;;
79009;SDS011;73031;44.726;37.760;2024-03-25T01:19:10;18.65;;;9.35;;
79009;SDS011;73031;44.726;37.760;2024-03-25T01:20:11;24.02;;;8.75;;
79009;SDS011;73031;44.726;37.760;2024-03-25T01:21:12;16.33;;;8.70;;
79009;SDS011;73031;44.726;37.760;2024-03-25T01:22:13;18.85;;;8.75;;
79009;SDS011;73031;44.726;37.760;2024-03-25T01:23:14;15.95;;;8.65;;
79009;SDS011;73031;44.726;37.760;2024-03-25T01:24:15;19.15;;;8.93;;
79009;SDS011;73031;44.726;37.760;2024-03-25T01:25:16;19.88;;;8.95;;
79009;SDS011;73031;44.726;37.760;2024-03-25T01:26:18;18.58;;;8.93;;
79009;SDS011;73031;44.726;37.760;2024-03-25T01:27:19;20.17;;;8.50;;
79009;SDS011;73031;44.726;37.760;2024-03-25T01:28:20;24.52;;;9.60;;
79009;SDS011;73031;44.726;37.760;2024-03-25T01:29:21;19.40;;;9.13;;
79009;SDS011;73031;44.726;37.760;2024-03-25T01:30:22;20.38;;;8.98;;
79009;SDS011;73031;44.726;37.760;2024-03-25T01:31:23;16.75;;;8.35;;
79009;SDS011;73031;44.726;37.760;2024-03-25T01:32:24;20.42;;;8.90;;
79009;SDS011;73031;44.726;37.760;2024-03-25T01:33:25;19.23;;;8.65;;
79009;SDS011;73031;44.726;37.760;2024-03-25T01:34:26;22.20;;;9.15;;
79009;SDS011;73031;44.726;37.760;2024-03-25T01:35:27;17.15;;;8.48;;
79009;SDS011;73031;44.726;37.760;2024-03-25T01:36:29;19.42;;;9.10;;
79009;SDS011;73031;44.726;37.760;2024-03-25T01:37:30;28.35;;;9.52;;
79009;SDS011;73031;44.726;37.760;2024-03-25T01:38:31;22.73;;;9.10;;
79009;SDS011;73031;44.726;37.760;2024-03-25T01:39:32;17.48;;;8.13;;
79009;SDS011;73031;44.726;37.760;2024-03-25T01:40:33;23.13;;;9.20;;
79009;SDS011;73031;44.726;37.760;2024-03-25T01:41:35;19.55;;;9.02;;
79009;SDS011;73031;44.726;37.760;2024-03-25T01:42:36;21.73;;;8.43;;
79009;SDS011;73031;44.726;37.760;2024-03-25T01:43:38;20.30;;;8.65;;
79009;SDS011;73031;44.726;37.760;2024-03-25T01:44:39;21.52;;;9.05;;
79009;SDS011;73031;44.726;37.760;2024-03-25T01:45:40;17.30;;;8.43;;
79009;SDS011;73031;44.726;37.760;2024-03-25T01:46:42;23.17;;;9.00;;
79009;SDS011;73031;44.726;37.760;2024-03-25T01:47:43;19.48;;;9.00;;
79009;SDS011;73031;44.726;37.760;2024-03-25T01:48:45;20.90;;;9.23;;
79009;SDS011;73031;44.726;37.760;2024-03-25T01:49:48;16.63;;;7.93;;
79009;SDS011;73031;44.726;37.760;2024-03-25T01:50:50;19.08;;;8.48;;
79009;SDS011;73031;44.726;37.760;2024-03-25T01:51:52;21.55;;;8.50;;
79009;SDS011;73031;44.726;37.760;2024-03-25T01:52:53;22.42;;;8.52;;
79009;SDS011;73031;44.726;37.760;2024-03-25T01:53:54;19.27;;;8.68;;
79009;SDS011;73031;44.726;37.760;2024-03-25T01:54:56;19.65;;;9.00;;
79009;SDS011;73031;44.726;37.760;2024-03-25T01:55:57;19.58;;;8.52;;
79009;SDS011;73031;44.726;37.760;2024-03-25T01:57:00;25.83;;;8.52;;
79009;SDS011;73031;44.726;37.760;2024-03-25T01:58:02;23.08;;;9.48;;
79009;SDS011;73031;44.726;37.760;2024-03-25T01:59:18;21.33;;;8.93;;
79009;SDS011;73031;44.726;37.760;2024-03-25T02:00:20;19.25;;;9.70;;
79009;SDS011;73031;44.726;37.760;2024-03-25T02:01:22;16.15;;;8.05;;
79009;SDS011;73031;44.726;37.760;2024-03-25T02:02:23;20.40;;;8.48;;
79009;SDS011;73031;44.726;37.760;2024-03-25T02:03:24;20.58;;;8.63;;
79009;SDS011;73031;44.726;37.760;2024-03-25T02:04:26;19.33;;;8.52;;
79009;SDS011;73031;44.726;37.760;2024-03-25T02:05:31;19.65;;;8.77;;
79009;SDS011;73031;44.726;37.760;2024-03-25T02:06:32;19.15;;;8.68;;
79009;SDS011;73031;44.726;37.760;2024-03-25T02:07:35;16.80;;;9.00;;
79009;SDS011;73031;44.726;37.760;2024-03-25T02:08:41;19.58;;;8.55;;
79009;SDS011;73031;44.726;37.760;2024-03-25T02:09:43;20.30;;;8.68;;
79009;SDS011;73031;44.726;37.760;2024-03-25T02:10:49;18.80;;;8.98;;
79009;SDS011;73031;44.726;37.760;2024-03-25T02:11:51;21.52;;;9.18;;
79009;SDS011;73031;44.726;37.760;2024-03-25T02:12:53;18.85;;;9.45;;
79009;SDS011;73031;44.726;37.760;2024-03-25T02:13:55;16.75;;;8.65;;
79009;SDS011;73031;44.726;37.760;2024-03-25T02:14:57;21.88;;;8.73;;
79009;SDS011;73031;44.726;37.760;2024-03-25T02:15:59;17.70;;;8.55;;
79009;SDS011;73031;44.726;37.760;2024-03-25T02:17:00;17.80;;;8.27;;
79009;SDS011;73031;44.726;37.760;2024-03-25T02:18:02;16.13;;;8.35;;
79009;SDS011;73031;44.726;37.760;2024-03-25T02:19:04;16.20;;;9.38;;
79009;SDS011;73031;44.726;37.760;2024-03-25T02:20:06;16.38;;;8.52;;
79009;SDS011;73031;44.726;37.760;2024-03-25T02:21:11;20.33;;;8.27;;
79009;SDS011;73031;44.726;37.760;2024-03-25T02:22:12;17.15;;;7.95;;
79009;SDS011;73031;44.726;37.760;2024-03-25T02:23:13;15.52;;;8.93;;
79009;SDS011;73031;44.726;37.760;2024-03-25T02:24:14;17.58;;;8.60;;
79009;SDS011;73031;44.726;37.760;2024-03-25T02:25:17;20.23;;;8.48;;
79009;SDS011;73031;44.726;37.760;2024-03-25T02:26:18;16.33;;;8.52;;
79009;SDS011;73031;44.726;37.760;2024-03-25T02:27:19;18.95;;;8.05;;
79009;SDS011;73031;44.726;37.760;2024-03-25T02:28:20;16.13;;;7.97;;
79009;SDS011;73031;44.726;37.760;2024-03-25T02:29:22;17.88;;;8.10;;
79009;SDS011;73031;44.726;37.760;2024-03-25T02:30:23;18.25;;;8.40;;
79009;SDS011;73031;44.726;37.760;2024-03-25T02:31:24;16.48;;;7.88;;
79009;SDS011;73031;44.726;37.760;2024-03-25T02:32:25;17.90;;;7.45;;
79009;SDS011;73031;44.726;37.760;2024-03-25T02:33:26;21.33;;;7.88;;
79009;SDS011;73031;44.726;37.760;2024-03-25T02:34:27;19.67;;;8.45;;
79009;SDS011;73031;44.726;37.760;2024-03-25T02:35:28;19.33;;;8.43;;
79009;SDS011;73031;44.726;37.760;2024-03-25T02:36:29;17.10;;;8.43;;
79009;SDS011;73031;44.726;37.760;2024-03-25T02:37:31;19.52;;;8.48;;
79009;SDS011;73031;44.726;37.760;2024-03-25T02:38:33;17.58;;;8.10;;
79009;SDS011;73031;44.726;37.760;2024-03-25T02:39:34;17.77;;;8.52;;
79009;SDS011;73031;44.726;37.760;2024-03-25T02:40:37;16.42;;;7.40;;
79009;SDS011;73031;44.726;37.760;2024-03-25T02:41:38;17.80;;;7.50;;
79009;SDS011;73031;44.726;37.760;2024-03-25T02:42:40;15.75;;;7.93;;
79009;SDS011;73031;44.726;37.760;2024-03-25T02:43:42;17.83;;;8.70;;
79009;SDS011;73031;44.726;37.760;2024-03-25T02:44:43;15.25;;;7.57;;
79009;SDS011;73031;44.726;37.760;2024-03-25T02:45:45;16.02;;;8.25;;
79009;SDS011;73031;44.726;37.760;2024-03-25T02:46:46;19.30;;;7.80;;
79009;SDS011;73031;44.726;37.760;2024-03-25T02:47:49;22.48;;;8.73;;
79009;SDS011;73031;44.726;37.760;2024-03-25T02:48:51;20.98;;;8.45;;
79009;SDS011;73031;44.726;37.760;2024-03-25T02:49:53;24.48;;;8.95;;
79009;SDS011;73031;44.726;37.760;2024-03-25T02:50:54;21.58;;;9.05;;
79009;SDS011;73031;44.726;37.760;2024-03-25T02:51:56;21.63;;;8.93;;
79009;SDS011;73031;44.726;37.760;2024-03-25T02:52:57;20.23;;;8.60;;
79009;SDS011;73031;44.726;37.760;2024-03-25T02:53:58;16.77;;;8.60;;
79009;SDS011;73031;44.726;37.760;2024-03-25T02:54:59;20.67;;;8.15;;
79009;SDS011;73031;44.726;37.760;2024-03-25T02:56:00;22.42;;;8.40;;
79009;SDS011;73031;44.726;37.760;2024-03-25T02:57:01;23.10;;;9.27;;
79009;SDS011;73031;44.726;37.760;2024-03-25T02:58:02;18.15;;;8.40;;
79009;SDS011;73031;44.726;37.760;2024-03-25T02:59:04;16.98;;;7.97;;
79009;SDS011;73031;44.726;37.760;2024-03-25T03:00:05;17.45;;;8.43;;
79009;SDS011;73031;44.726;37.760;2024-03-25T03:01:07;19.50;;;8.15;;
79009;SDS011;73031;44.726;37.760;2024-03-25T03:02:08;17.70;;;8.13;;
79009;SDS011;73031;44.726;37.760;2024-03-25T03:03:09;20.67;;;8.57;;
79009;SDS011;73031;44.726;37.760;2024-03-25T03:04:10;19.13;;;7.75;;
79009;SDS011;73031;44.726;37.760;2024-03-25T03:05:11;21.90;;;8.60;;
79009;SDS011;73031;44.726;37.760;2024-03-25T03:06:12;17.30;;;8.40;;
79009;SDS011;73031;44.726;37.760;2024-03-25T03:07:14;21.77;;;8.52;;
79009;SDS011;73031;44.726;37.760;2024-03-25T03:08:15;19.58;;;8.32;;
79009;SDS011;73031;44.726;37.760;2024-03-25T03:09:16;26.95;;;9.20;;
79009;SDS011;73031;44.726;37.760;2024-03-25T03:10:17;19.80;;;8.60;;
79009;SDS011;73031;44.726;37.760;2024-03-25T03:11:18;18.33;;;8.68;;
79009;SDS011;73031;44.726;37.760;2024-03-25T03:12:19;18.25;;;8.70;;
79009;SDS011;73031;44.726;37.760;2024-03-25T03:13:20;21.80;;;8.45;;
79009;SDS011;73031;44.726;37.760;2024-03-25T03:14:21;21.58;;;8.52;;
79009;SDS011;73031;44.726;37.760;2024-03-25T03:15:22;20.38;;;8.15;;
79009;SDS011;73031;44.726;37.760;2024-03-25T03:16:23;20.17;;;8.25;;
79009;SDS011;73031;44.726;37.760;2024-03-25T03:17:24;24.27;;;8.55;;
79009;SDS011;73031;44.726;37.760;2024-03-25T03:18:26;16.90;;;7.50;;
79009;SDS011;73031;44.726;37.760;2024-03-25T03:19:28;19.67;;;8.50;;
79009;SDS011;73031;44.726;37.760;2024-03-25T03:20:29;18.92;;;8.98;;
79009;SDS011;73031;44.726;37.760;2024-03-25T03:21:30;25.05;;;10.13;;
79009;SDS011;73031;44.726;37.760;2024-03-25T03:22:32;22.95;;;8.82;;
79009;SDS011;73031;44.726;37.760;2024-03-25T03:23:33;20.70;;;9.23;;
79009;SDS011;73031;44.726;37.760;2024-03-25T03:24:34;22.67;;;9.05;;
79009;SDS011;73031;44.726;37.760;2024-03-25T03:25:35;19.55;;;8.23;;
79009;SDS011;73031;44.726;37.760;2024-03-25T03:26:36;19.02;;;7.97;;
79009;SDS011;73031;44.726;37.760;2024-03-25T03:27:37;25.35;;;8.95;;
79009;SDS011;73031;44.726;37.760;2024-03-25T03:28:38;20.73;;;9.05;;
79009;SDS011;73031;44.726;37.760;2024-03-25T03:29:39;23.58;;;8.70;;
79009;SDS011;73031;44.726;37.760;2024-03-25T03:30:40;21.40;;;9.43;;
79009;SDS011;73031;44.726;37.760;2024-03-25T03:31:42;20.95;;;9.52;;
79009;SDS011;73031;44.726;37.760;2024-03-25T03:32:43;19.17;;;9.13;;
79009;SDS011;73031;44.726;37.760;2024-03-25T03:33:44;23.50;;;9.38;;
79009;SDS011;73031;44.726;37.760;2024-03-25T03:34:46;21.10;;;8.60;;
79009;SDS011;73031;44.726;37.760;2024-03-25T03:35:47;20.23;;;8.70;;
79009;SDS011;73031;44.726;37.760;2024-03-25T03:36:48;21.50;;;8.88;;
79009;SDS011;73031;44.726;37.760;2024-03-25T03:37:49;22.55;;;8.80;;
79009;SDS011;73031;44.726;37.760;2024-03-25T03:38:51;25.73;;;8.60;;
79009;SDS011;73031;44.726;37.760;2024-03-25T03:39:52;25.13;;;11.25;;
79009;SDS011;73031;44.726;37.760;2024-03-25T03:41:02;29.00;;;11.73;;
79009;SDS011;73031;44.726;37.760;2024-03-25T03:42:07;56.33;;;25.75;;
79009;SDS011;73031;44.726;37.760;2024-03-25T03:43:08;24.83;;;11.82;;
79009;SDS011;73031;44.726;37.760;2024-03-25T03:44:09;26.33;;;12.23;;
79009;SDS011;73031;44.726;37.760;2024-03-25T03:45:10;31.45;;;15.38;;
79009;SDS011;73031;44.726;37.760;2024-03-25T03:46:13;25.40;;;12.80;;
79009;SDS011;73031;44.726;37.760;2024-03-25T03:47:14;30.70;;;12.52;;
79009;SDS011;73031;44.726;37.760;2024-03-25T03:48:15;25.05;;;12.57;;
79009;SDS011;73031;44.726;37.760;2024-03-25T03:49:16;24.45;;;13.20;;
79009;SDS011;73031;44.726;37.760;2024-03-25T03:50:17;25.35;;;11.95;;
79009;SDS011;73031;44.726;37.760;2024-03-25T03:51:19;30.10;;;12.98;;
79009;SDS011;73031;44.726;37.760;2024-03-25T03:52:20;34.08;;;13.98;;
79009;SDS011;73031;44.726;37.760;2024-03-25T03:53:22;28.30;;;13.43;;
79009;SDS011;73031;44.726;37.760;2024-03-25T03:54:23;26.23;;;11.02;;
79009;SDS011;73031;44.726;37.760;2024-03-25T03:55:24;31.77;;;13.65;;
79009;SDS011;73031;44.726;37.760;2024-03-25T03:56:25;35.97;;;15.77;;
79009;SDS011;73031;44.726;37.760;2024-03-25T03:57:26;36.72;;;17.58;;
79009;SDS011;73031;44.726;37.760;2024-03-25T03:58:28;39.35;;;17.23;;
79009;SDS011;73031;44.726;37.760;2024-03-25T03:59:29;35.08;;;16.60;;
79009;SDS011;73031;44.726;37.760;2024-03-25T04:00:33;23.42;;;10.98;;
79009;SDS011;73031;44.726;37.760;2024-03-25T04:01:35;26.67;;;10.85;;
79009;SDS011;73031;44.726;37.760;2024-03-25T04:02:36;21.98;;;8.57;;
79009;SDS011;73031;44.726;37.760;2024-03-25T04:03:38;20.35;;;8.60;;
79009;SDS011;73031;44.726;37.760;2024-03-25T04:04:40;16.23;;;8.27;;
79009;SDS011;73031;44.726;37.760;2024-03-25T04:05:41;17.58;;;7.40;;
79009;SDS011;73031;44.726;37.760;2024-03-25T04:06:42;17.70;;;7.78;;
79009;SDS011;73031;44.726;37.760;2024-03-25T04:07:43;18.10;;;8.10;;
79009;SDS011;73031;44.726;37.760;2024-03-25T04:08:44;17.65;;;7.05;;
79009;SDS011;73031;44.726;37.760;2024-03-25T04:09:45;15.50;;;7.35;;
79009;SDS011;73031;44.726;37.760;2024-03-25T04:10:46;18.48;;;7.28;;
79009;SDS011;73031;44.726;37.760;2024-03-25T04:11:47;17.80;;;7.72;;
79009;SDS011;73031;44.726;37.760;2024-03-25T04:12:48;24.73;;;7.60;;
79009;SDS011;73031;44.726;37.760;2024-03-25T04:13:49;22.48;;;7.57;;
79009;SDS011;73031;44.726;37.760;2024-03-25T04:14:52;18.70;;;7.55;;
79009;SDS011;73031;44.726;37.760;2024-03-25T04:16:00;15.27;;;7.30;;
79009;SDS011;73031;44.726;37.760;2024-03-25T04:17:02;18.15;;;7.45;;
79009;SDS011;73031;44.726;37.760;2024-03-25T04:18:04;14.50;;;6.93;;
79009;SDS011;73031;44.726;37.760;2024-03-25T04:19:05;15.30;;;6.60;;
79009;SDS011;73031;44.726;37.760;2024-03-25T04:20:06;16.25;;;7.13;;
79009;SDS011;73031;44.726;37.760;2024-03-25T04:21:11;16.40;;;6.30;;
79009;SDS011;73031;44.726;37.760;2024-03-25T04:22:13;21.38;;;7.13;;
79009;SDS011;73031;44.726;37.760;2024-03-25T04:23:14;17.13;;;6.57;;
79009;SDS011;73031;44.726;37.760;2024-03-25T04:24:15;16.92;;;6.65;;
79009;SDS011;73031;44.726;37.760;2024-03-25T04:25:16;16.55;;;6.38;;
79009;SDS011;73031;44.726;37.760;2024-03-25T04:26:18;27.52;;;13.38;;
79009;SDS011;73031;44.726;37.760;2024-03-25T04:27:19;30.40;;;15.90;;
79009;SDS011;73031;44.726;37.760;2024-03-25T04:28:22;78.00;;;39.90;;
79009;SDS011;73031;44.726;37.760;2024-03-25T04:29:28;123.05;;;59.75;;
79009;SDS011;73031;44.726;37.760;2024-03-25T04:30:29;52.30;;;25.15;;
79009;SDS011;73031;44.726;37.760;2024-03-25T04:31:31;32.17;;;17.75;;
79009;SDS011;73031;44.726;37.760;2024-03-25T04:32:32;19.90;;;9.45;;
79009;SDS011;73031;44.726;37.760;2024-03-25T04:33:33;18.83;;;8.05;;
79009;SDS011;73031;44.726;37.760;2024-03-25T04:34:35;14.73;;;7.05;;
79009;SDS011;73031;44.726;37.760;2024-03-25T04:35:36;14.13;;;6.40;;
79009;SDS011;73031;44.726;37.760;2024-03-25T04:36:37;14.23;;;6.72;;
79009;SDS011;73031;44.726;37.760;2024-03-25T04:37:38;12.93;;;6.97;;
79009;SDS011;73031;44.726;37.760;2024-03-25T04:38:39;17.58;;;6.75;;
79009;SDS011;73031;44.726;37.760;2024-03-25T04:39:40;20.00;;;7.32;;
79009;SDS011;73031;44.726;37.760;2024-03-25T04:40:42;29.38;;;11.13;;
79009;SDS011;73031;44.726;37.760;2024-03-25T04:41:44;21.38;;;8.77;;
79009;SDS011;73031;44.726;37.760;2024-03-25T04:42:46;23.05;;;8.65;;
79009;SDS011;73031;44.726;37.760;2024-03-25T04:43:47;27.75;;;8.07;;
79009;SDS011;73031;44.726;37.760;2024-03-25T04:44:49;24.42;;;9.18;;
79009;SDS011;73031;44.726;37.760;2024-03-25T04:45:51;18.42;;;9.10;;
79009;SDS011;73031;44.726;37.760;2024-03-25T04:46:52;22.33;;;9.95;;
79009;SDS011;73031;44.726;37.760;2024-03-25T04:47:53;20.98;;;8.45;;
79009;SDS011;73031;44.726;37.760;2024-03-25T04:48:54;30.15;;;9.38;;
79009;SDS011;73031;44.726;37.760;2024-03-25T04:49:55;24.48;;;8.80;;
79009;SDS011;73031;44.726;37.760;2024-03-25T04:50:56;30.58;;;9.82;;
79009;SDS011;73031;44.726;37.760;2024-03-25T04:51:57;22.77;;;8.43;;
79009;SDS011;73031;44.726;37.760;2024-03-25T04:52:58;20.55;;;8.00;;
79009;SDS011;73031;44.726;37.760;2024-03-25T04:53:59;38.08;;;9.40;;
79009;SDS011;73031;44.726;37.760;2024-03-25T04:55:00;24.58;;;8.25;;
79009;SDS011;73031;44.726;37.760;2024-03-25T04:56:01;25.40;;;8.57;;
79009;SDS011;73031;44.726;37.760;2024-03-25T04:57:04;19.42;;;8.68;;
79009;SDS011;73031;44.726;37.760;2024-03-25T04:58:06;33.25;;;9.57;;
79009;SDS011;73031;44.726;37.760;2024-03-25T04:59:07;27.58;;;8.95;;
79009;SDS011;73031;44.726;37.760;2024-03-25T05:00:08;22.88;;;8.75;;
79009;SDS011;73031;44.726;37.760;2024-03-25T05:01:11;32.38;;;9.63;;
79009;SDS011;73031;44.726;37.760;2024-03-25T05:02:12;25.15;;;9.35;;
79009;SDS011;73031;44.726;37.760;2024-03-25T05:03:14;53.95;;;22.75;;
79009;SDS011;73031;44.726;37.760;2024-03-25T05:04:15;65.95;;;29.95;;
79009;SDS011;73031;44.726;37.760;2024-03-25T05:05:16;48.10;;;21.58;;
79009;SDS011;73031;44.726;37.760;2024-03-25T05:06:17;42.97;;;16.73;;
79009;SDS011;73031;44.726;37.760;2024-03-25T05:07:18;37.05;;;10.15;;
79009;SDS011;73031;44.726;37.760;2024-03-25T05:08:19;49.85;;;15.98;;
79009;SDS011;73031;44.726;37.760;2024-03-25T05:09:21;41.35;;;12.60;;
79009;SDS011;73031;44.726;37.760;2024-03-25T05:10:22;39.33;;;13.93;;
79009;SDS011;73031;44.726;37.760;2024-03-25T05:11:23;38.80;;;10.45;;
79009;SDS011;73031;44.726;37.760;2024-03-25T05:12:24;42.35;;;11.82;;
79009;SDS011;73031;44.726;37.760;2024-03-25T05:13:30;39.05;;;9.80;;
79009;SDS011;73031;44.726;37.760;2024-03-25T05:14:31;39.17;;;10.15;;
79009;SDS011;73031;44.726;37.760;2024-03-25T05:15:32;41.85;;;10.23;;
79009;SDS011;73031;44.726;37.760;2024-03-25T05:16:33;34.40;;;10.43;;
79009;SDS011;73031;44.726;37.760;2024-03-25T05:17:34;44.92;;;10.93;;
79009;SDS011;73031;44.726;37.760;2024-03-25T05:18:35;23.08;;;9.43;;
79009;SDS011;73031;44.726;37.760;2024-03-25T05:19:37;26.33;;;9.50;;
79009;SDS011;73031;44.726;37.760;2024-03-25T05:20:38;37.97;;;9.82;;
79009;SDS011;73031;44.726;37.760;2024-03-25T05:21:39;17.17;;;8.23;;
79009;SDS011;73031;44.726;37.760;2024-03-25T05:22:40;21.25;;;9.02;;
79009;SDS011;73031;44.726;37.760;2024-03-25T05:23:41;29.67;;;9.52;;
79009;SDS011;73031;44.726;37.760;2024-03-25T05:24:43;20.77;;;9.77;;
79009;SDS011;73031;44.726;37.760;2024-03-25T05:25:44;23.52;;;8.15;;
79009;SDS011;73031;44.726;37.760;2024-03-25T05:26:45;22.55;;;8.75;;
79009;SDS011;73031;44.726;37.760;2024-03-25T05:27:46;23.73;;;7.70;;
79009;SDS011;73031;44.726;37.760;2024-03-25T05:28:52;21.38;;;8.95;;
79009;SDS011;73031;44.726;37.760;2024-03-25T05:29:54;24.83;;;8.98;;
79009;SDS011;73031;44.726;37.760;2024-03-25T05:30:55;22.60;;;8.45;;
79009;SDS011;73031;44.726;37.760;2024-03-25T05:31:57;29.08;;;7.88;;
79009;SDS011;73031;44.726;37.760;2024-03-25T05:33:01;26.45;;;8.52;;
79009;SDS011;73031;44.726;37.760;2024-03-25T05:34:02;25.63;;;7.80;;
79009;SDS011;73031;44.726;37.760;2024-03-25T05:35:09;26.63;;;9.07;;
79009;SDS011;73031;44.726;37.760;2024-03-25T05:36:11;26.58;;;8.65;;
79009;SDS011;73031;44.726;37.760;2024-03-25T05:37:12;36.90;;;9.80;;
79009;SDS011;73031;44.726;37.760;2024-03-25T05:38:13;29.60;;;8.05;;
79009;SDS011;73031;44.726;37.760;2024-03-25T05:39:14;28.98;;;9.68;;
79009;SDS011;73031;44.726;37.760;2024-03-25T05:40:15;60.88;;;30.20;;
79009;SDS011;73031;44.726;37.760;2024-03-25T05:41:17;58.28;;;21.85;;
79009;SDS011;73031;44.726;37.760;2024-03-25T05:42:18;48.78;;;18.08;;
79009;SDS011;73031;44.726;37.760;2024-03-25T05:43:19;33.20;;;10.13;;
79009;SDS011;73031;44.726;37.760;2024-03-25T05:44:23;27.83;;;15.45;;
79009;SDS011;73031;44.726;37.760;2024-03-25T05:45:24;30.92;;;11.10;;
79009;SDS011;73031;44.726;37.760;2024-03-25T05:46:25;24.25;;;9.15;;
79009;SDS011;73031;44.726;37.760;2024-03-25T05:47:27;17.65;;;5.85;;
79009;SDS011;73031;44.726;37.760;2024-03-25T05:48:30;20.63;;;7.53;;
79009;SDS011;73031;44.726;37.760;2024-03-25T05:49:31;22.27;;;7.35;;
79009;SDS011;73031;44.726;37.760;2024-03-25T05:50:32;25.52;;;6.72;;
79009;SDS011;73031;44.726;37.760;2024-03-25T05:51:33;17.40;;;6.38;;
79009;SDS011;73031;44.726;37.760;2024-03-25T05:52:34;16.90;;;6.05;;
79009;SDS011;73031;44.726;37.760;2024-03-25T05:53:36;13.57;;;5.38;;
79009;SDS011;73031;44.726;37.760;2024-03-25T05:54:38;16.98;;;6.03;;
79009;SDS011;73031;44.726;37.760;2024-03-25T05:55:39;21.25;;;6.78;;
79009;SDS011;73031;44.726;37.760;2024-03-25T05:56:41;15.02;;;4.90;;
79009;SDS011;73031;44.726;37.760;2024-03-25T05:57:42;16.02;;;5.78;;
79009;SDS011;73031;44.726;37.760;2024-03-25T05:58:43;21.80;;;6.53;;